createdAt,value
2022-09-23T03:43:13.889Z,2.10
2022-09-23T03:46:18.467Z,2.28
2022-09-23T03:49:27.858Z,1.42
2022-09-23T03:52:31.113Z,2.22
2022-09-23T03:55:34.826Z,2.85
2022-09-23T03:58:38.182Z,2.22
2022-09-23T04:01:46.032Z,1.40
2022-09-23T04:04:49.121Z,1.83
2022-09-23T04:07:52.272Z,2.80
2022-09-23T04:11:02.507Z,2.20
2022-09-23T04:14:05.648Z,2.25
2022-09-23T04:17:08.766Z,1.95
2022-09-23T04:20:11.403Z,2.08
2022-09-23T04:23:16.993Z,2.42
2022-09-23T04:26:19.518Z,2.87
2022-09-23T04:29:23.534Z,2.33
2022-09-23T04:32:26.100Z,2.05
2022-09-23T04:35:29.000Z,2.28
2022-09-23T04:38:31.696Z,2.65
2022-09-23T04:41:34.624Z,2.55
2022-09-23T04:44:38.993Z,3.22
2022-09-23T04:47:41.873Z,2.40
2022-09-23T04:50:44.481Z,2.97
2022-09-23T04:53:49.725Z,2.60
2022-09-23T04:56:52.508Z,2.67
2022-09-23T04:59:56.906Z,2.47
2022-09-23T05:02:59.519Z,2.87
2022-09-23T05:06:02.416Z,2.20
2022-09-23T05:09:07.546Z,2.55
2022-09-23T05:12:10.645Z,2.65
2022-09-23T05:15:16.092Z,2.60
2022-09-23T05:18:20.837Z,2.40
2022-09-23T05:21:25.358Z,2.55
2022-09-23T05:24:29.694Z,2.62
2022-09-23T05:27:32.334Z,3.15
2022-09-23T05:30:35.992Z,2.58
2022-09-23T05:33:38.916Z,3.00
2022-09-23T05:39:44.093Z,2.50
2022-09-23T05:42:46.943Z,2.30
2022-09-23T05:45:49.591Z,2.97
2022-09-23T05:48:52.731Z,2.25
2022-09-23T05:51:55.251Z,2.33
2022-09-23T05:54:58.051Z,2.47
2022-09-23T05:58:00.717Z,2.33
2022-09-23T06:01:34.504Z,2.97
2022-09-23T06:04:37.481Z,2.85
2022-09-23T06:07:40.133Z,3.00
2022-09-23T06:10:45.044Z,2.72
2022-09-23T06:13:48.591Z,2.22
2022-09-23T06:16:51.590Z,3.15
2022-09-23T06:19:54.104Z,2.85
2022-09-23T06:23:09.687Z,3.25
2022-09-23T06:26:16.868Z,2.78
2022-09-23T06:29:19.714Z,3.60
2022-09-23T06:32:22.723Z,2.92
2022-09-23T06:35:27.752Z,2.97
2022-09-23T06:38:30.890Z,2.42
2022-09-23T06:41:33.753Z,2.87
2022-09-23T06:44:36.373Z,2.62
2022-09-23T06:47:39.709Z,2.90
2022-09-23T06:50:42.327Z,2.50
2022-09-23T06:53:46.897Z,3.10
2022-09-23T06:56:49.429Z,2.90
2022-09-23T06:59:55.135Z,2.92
2022-09-23T07:02:57.815Z,2.50
2022-09-23T07:06:01.376Z,2.47
2022-09-23T07:09:06.269Z,2.80
2022-09-23T07:12:09.172Z,2.90
2022-09-23T07:15:11.861Z,2.62
2022-09-23T07:18:14.698Z,3.22
2022-09-23T07:21:18.891Z,2.80
2022-09-23T07:24:22.871Z,2.60
2022-09-23T07:27:26.627Z,1.92
2022-09-23T07:30:29.460Z,2.83
2022-09-23T07:33:33.314Z,1.98
2022-09-23T07:36:37.558Z,2.10
2022-09-23T07:39:41.546Z,2.33
2022-09-23T07:42:44.620Z,2.65
2022-09-23T07:45:47.333Z,2.50
2022-09-23T07:51:54.178Z,2.40
2022-09-23T07:54:57.079Z,2.10
2022-09-23T07:57:59.680Z,1.60
2022-09-23T08:01:08.903Z,2.28
2022-09-23T08:04:17.136Z,1.85
2022-09-23T08:07:19.839Z,2.03
2022-09-23T08:10:22.834Z,2.28
2022-09-23T08:13:25.388Z,2.40
2022-09-23T08:16:28.333Z,2.60
2022-09-23T08:19:31.264Z,1.65
2022-09-23T08:22:34.095Z,2.17
2022-09-23T08:25:37.015Z,2.30
2022-09-23T08:28:41.106Z,2.20
2022-09-23T08:31:44.172Z,1.92
2022-09-23T08:34:47.126Z,2.08
2022-09-23T08:37:50.420Z,2.03
2022-09-23T08:41:04.445Z,2.03
2022-09-23T08:44:19.399Z,2.65
2022-09-23T08:47:32.254Z,2.37
2022-09-23T08:50:50.214Z,2.55
2022-09-23T08:53:53.206Z,1.70
2022-09-23T08:56:59.858Z,2.28
2022-09-23T09:00:04.187Z,2.12
2022-09-23T09:03:21.255Z,2.22
2022-09-23T09:06:51.744Z,1.73
2022-09-23T09:10:18.769Z,1.90
2022-09-23T09:13:33.460Z,1.95
2022-09-23T09:17:06.226Z,2.35
2022-09-23T09:20:16.864Z,2.58
2022-09-23T09:23:53.897Z,2.40
2022-09-23T09:26:56.792Z,2.25
2022-09-23T09:30:01.321Z,2.03
2022-09-23T09:33:11.702Z,1.95
2022-09-23T09:36:14.413Z,2.60
2022-09-23T09:39:17.388Z,1.80
2022-09-23T09:42:25.159Z,1.70
2022-09-23T09:45:57.775Z,2.00
2022-09-23T09:49:26.154Z,2.47
2022-09-23T09:52:32.406Z,2.17
2022-09-23T09:55:35.563Z,2.25
2022-09-23T09:58:52.191Z,1.83
2022-09-23T10:02:21.843Z,2.03
2022-09-23T10:05:46.668Z,2.40
2022-09-23T10:09:04.772Z,2.40
2022-09-23T10:12:18.758Z,2.10
2022-09-23T10:15:30.884Z,2.20
2022-09-23T10:18:39.295Z,2.05
2022-09-23T10:21:42.785Z,1.83
2022-09-23T10:24:52.696Z,2.08
2022-09-23T10:27:55.205Z,2.60
2022-09-23T10:31:27.061Z,1.80
2022-09-23T10:34:33.922Z,2.00
2022-09-23T10:37:45.373Z,1.92
2022-09-23T10:41:06.435Z,2.35
2022-09-23T10:44:39.655Z,2.10
2022-09-23T10:48:01.252Z,2.03
2022-09-23T10:51:31.718Z,1.90
2022-09-23T10:54:57.223Z,3.35
2022-09-23T10:58:17.678Z,2.03
2022-09-23T11:01:41.678Z,2.87
2022-09-23T11:04:54.755Z,2.05
2022-09-23T11:08:00.429Z,2.00
2022-09-23T11:11:23.707Z,2.28
2022-09-23T11:14:26.136Z,2.10
2022-09-23T11:17:31.784Z,2.35
2022-09-23T11:21:01.202Z,1.75
2022-09-23T11:24:31.209Z,2.03
2022-09-23T11:27:59.411Z,1.80
2022-09-23T11:31:26.800Z,1.58
2022-09-23T11:34:41.879Z,2.17
2022-09-23T11:38:05.925Z,1.62
2022-09-23T11:41:30.636Z,1.77
2022-09-23T11:44:41.160Z,1.90
2022-09-23T11:48:18.584Z,1.62
2022-09-23T11:52:09.476Z,1.45
2022-09-23T11:55:22.735Z,1.00
2022-09-23T11:58:31.523Z,1.50
2022-09-23T12:01:42.068Z,1.40
2022-09-23T12:05:13.082Z,1.05
2022-09-23T12:08:33.955Z,1.55
2022-09-23T12:11:39.744Z,1.70
2022-09-23T12:14:57.874Z,1.23
2022-09-23T12:18:31.402Z,1.60
2022-09-23T12:24:59.604Z,1.87
2022-09-23T12:28:12.491Z,1.75
2022-09-23T12:31:22.037Z,1.67
2022-09-23T12:34:39.332Z,1.73
2022-09-23T12:37:43.296Z,1.23
2022-09-23T12:40:47.072Z,1.27
2022-09-23T12:43:55.313Z,1.40
2022-09-23T12:47:25.441Z,1.40
2022-09-23T12:50:47.757Z,0.90
2022-09-23T12:53:54.694Z,1.00
2022-09-23T12:56:59.066Z,1.17
2022-09-23T13:00:13.804Z,1.23
2022-09-23T13:03:41.237Z,0.93
2022-09-23T13:07:05.189Z,1.00
2022-09-23T13:10:27.839Z,0.90
2022-09-23T13:13:45.506Z,0.95
2022-09-23T13:16:49.357Z,1.60
2022-09-23T13:20:00.247Z,1.52
2022-09-23T13:23:15.944Z,0.88
2022-09-23T13:26:18.639Z,0.88
2022-09-23T13:29:46.439Z,0.95
2022-09-23T13:33:14.208Z,1.15
2022-09-23T13:36:19.430Z,1.02
2022-09-23T13:39:26.680Z,1.20
2022-09-23T13:42:30.505Z,1.27
2022-09-23T13:45:38.858Z,1.60
2022-09-23T13:48:45.077Z,1.15
2022-09-23T13:51:47.684Z,0.98
2022-09-23T13:54:50.983Z,1.33
2022-09-23T13:58:24.010Z,1.62
2022-09-23T14:01:33.217Z,1.10
2022-09-23T14:04:36.106Z,1.45
2022-09-23T14:07:38.784Z,1.60
2022-09-23T14:10:48.255Z,1.80
2022-09-23T14:13:55.418Z,1.50
2022-09-23T14:16:59.109Z,1.40
2022-09-23T14:20:01.867Z,1.30
2022-09-23T14:23:07.157Z,1.37
2022-09-23T14:26:10.394Z,1.67
2022-09-23T14:29:20.103Z,1.48
2022-09-23T14:32:26.860Z,1.33
2022-09-23T14:35:42.327Z,1.40
2022-09-23T14:38:53.966Z,1.30
2022-09-23T14:41:57.356Z,1.30
2022-09-23T14:45:05.211Z,1.30
2022-09-23T14:48:23.062Z,1.33
2022-09-23T14:51:36.241Z,1.15
2022-09-23T14:54:39.004Z,1.33
2022-09-23T14:57:42.925Z,1.15
2022-09-23T15:00:54.295Z,1.10
2022-09-23T15:04:27.823Z,1.30
2022-09-23T15:07:30.759Z,1.17
2022-09-23T15:10:37.692Z,1.20
2022-09-23T15:13:46.546Z,1.30
2022-09-23T15:16:49.234Z,1.40
